sensor_id;sensor_type;location;lat;lon;timestamp;temperature;humidity
63960;DHT22;50136;51.374;0.096;2022-09-17T00:06:34;10.60;96.70
63960;DHT22;50136;51.374;0.096;2022-09-17T00:16:39;10.50;96.60
63960;DHT22;50136;51.374;0.096;2022-09-17T00:26:42;10.50;96.80
63960;DHT22;50136;51.374;0.096;2022-09-17T00:36:45;10.40;97.20
63960;DHT22;50136;51.374;0.096;2022-09-17T00:46:48;10.20;97.70
63960;DHT22;50136;51.374;0.096;2022-09-17T00:56:51;10.20;97.70
63960;DHT22;50136;51.374;0.096;2022-09-17T01:07:00;10.00;98.20
63960;DHT22;50136;51.374;0.096;2022-09-17T01:17:12;9.90;98.10
63960;DHT22;50136;51.374;0.096;2022-09-17T01:27:43;9.90;98.00
63960;DHT22;50136;51.374;0.096;2022-09-17T01:38:00;9.90;98.50
63960;DHT22;50136;51.374;0.096;2022-09-17T01:48:08;9.80;99.20
63960;DHT22;50136;51.374;0.096;2022-09-17T01:58:16;9.70;99.30
63960;DHT22;50136;51.374;0.096;2022-09-17T02:08:21;9.70;99.40
63960;DHT22;50136;51.374;0.096;2022-09-17T02:18:28;9.50;99.90
63960;DHT22;50136;51.374;0.096;2022-09-17T02:28:39;9.40;99.90
63960;DHT22;50136;51.374;0.096;2022-09-17T02:38:44;9.10;99.90
63960;DHT22;50136;51.374;0.096;2022-09-17T02:49:01;8.90;99.90
63960;DHT22;50136;51.374;0.096;2022-09-17T02:59:11;8.70;99.90
63960;DHT22;50136;51.374;0.096;2022-09-17T03:09:15;8.60;99.90
63960;DHT22;50136;51.374;0.096;2022-09-17T03:19:18;8.50;99.90
63960;DHT22;50136;51.374;0.096;2022-09-17T03:29:20;8.40;99.90
63960;DHT22;50136;51.374;0.096;2022-09-17T03:39:24;8.30;99.90
63960;DHT22;50136;51.374;0.096;2022-09-17T03:49:25;8.30;99.90
63960;DHT22;50136;51.374;0.096;2022-09-17T03:59:29;8.20;99.90
63960;DHT22;50136;51.374;0.096;2022-09-17T04:09:31;8.10;99.90
63960;DHT22;50136;51.374;0.096;2022-09-17T04:19:37;8.10;99.90
63960;DHT22;50136;51.374;0.096;2022-09-17T04:29:39;8.00;99.90
63960;DHT22;50136;51.374;0.096;2022-09-17T04:39:42;7.80;99.90
63960;DHT22;50136;51.374;0.096;2022-09-17T04:49:44;7.70;99.90
63960;DHT22;50136;51.374;0.096;2022-09-17T04:59:47;7.60;99.90
63960;DHT22;50136;51.374;0.096;2022-09-17T05:09:49;7.40;99.90
63960;DHT22;50136;51.374;0.096;2022-09-17T05:19:53;7.40;99.90
63960;DHT22;50136;51.374;0.096;2022-09-17T05:29:55;7.30;99.90
63960;DHT22;50136;51.374;0.096;2022-09-17T05:39:58;7.30;99.90
63960;DHT22;50136;51.374;0.096;2022-09-17T05:50:00;7.20;99.90
63960;DHT22;50136;51.374;0.096;2022-09-17T06:00:04;7.10;99.90
63960;DHT22;50136;51.374;0.096;2022-09-17T06:10:07;7.20;99.90
63960;DHT22;50136;51.374;0.096;2022-09-17T06:20:10;7.20;99.90
63960;DHT22;50136;51.374;0.096;2022-09-17T06:30:12;7.30;99.90
63960;DHT22;50136;51.374;0.096;2022-09-17T06:40:16;7.50;99.90
63960;DHT22;50136;51.374;0.096;2022-09-17T06:50:18;7.60;99.90
63960;DHT22;50136;51.374;0.096;2022-09-17T07:00:23;7.70;99.90
63960;DHT22;50136;51.374;0.096;2022-09-17T07:10:25;8.00;99.90
63960;DHT22;50136;51.374;0.096;2022-09-17T07:20:28;8.20;99.90
63960;DHT22;50136;51.374;0.096;2022-09-17T07:30:30;8.50;99.90
63960;DHT22;50136;51.374;0.096;2022-09-17T07:40:34;8.90;99.90
63960;DHT22;50136;51.374;0.096;2022-09-17T07:50:36;9.30;99.90
63960;DHT22;50136;51.374;0.096;2022-09-17T08:00:40;9.80;99.90
63960;DHT22;50136;51.374;0.096;2022-09-17T08:10:42;10.30;99.90
63960;DHT22;50136;51.374;0.096;2022-09-17T08:20:45;10.60;99.90
63960;DHT22;50136;51.374;0.096;2022-09-17T08:30:47;10.90;99.90
63960;DHT22;50136;51.374;0.096;2022-09-17T08:41:00;11.40;99.90
63960;DHT22;50136;51.374;0.096;2022-09-17T08:51:09;11.90;99.90
63960;DHT22;50136;51.374;0.096;2022-09-17T09:01:23;12.40;97.40
63960;DHT22;50136;51.374;0.096;2022-09-17T09:11:28;14.20;95.70
63960;DHT22;50136;51.374;0.096;2022-09-17T09:21:38;17.00;92.50
63960;DHT22;50136;51.374;0.096;2022-09-17T09:31:54;18.90;85.40
63960;DHT22;50136;51.374;0.096;2022-09-17T09:42:03;19.90;83.90
63960;DHT22;50136;51.374;0.096;2022-09-17T09:52:15;20.70;82.00
63960;DHT22;50136;51.374;0.096;2022-09-17T10:02:22;20.10;79.60
63960;DHT22;50136;51.374;0.096;2022-09-17T10:12:25;21.50;79.40
63960;DHT22;50136;51.374;0.096;2022-09-17T10:22:31;20.80;81.20
63960;DHT22;50136;51.374;0.096;2022-09-17T10:32:34;20.70;76.20
63960;DHT22;50136;51.374;0.096;2022-09-17T10:42:37;20.60;80.90
63960;DHT22;50136;51.374;0.096;2022-09-17T10:52:40;19.80;80.50
63960;DHT22;50136;51.374;0.096;2022-09-17T11:13:31;18.50;80.60
63960;DHT22;50136;51.374;0.096;2022-09-17T11:24:05;17.40;83.60
63960;DHT22;50136;51.374;0.096;2022-09-17T11:34:33;16.60;85.10
63960;DHT22;50136;51.374;0.096;2022-09-17T11:45:02;16.20;86.40
63960;DHT22;50136;51.374;0.096;2022-09-17T12:06:08;15.80;86.80
63960;DHT22;50136;51.374;0.096;2022-09-17T12:27:29;15.60;89.30
63960;DHT22;50136;51.374;0.096;2022-09-17T12:37:41;15.60;89.10
63960;DHT22;50136;51.374;0.096;2022-09-17T12:59:02;15.40;88.80
63960;DHT22;50136;51.374;0.096;2022-09-17T13:20:15;15.70;87.50
63960;DHT22;50136;51.374;0.096;2022-09-17T13:30:18;15.90;86.60
63960;DHT22;50136;51.374;0.096;2022-09-17T13:40:23;16.00;86.90
63960;DHT22;50136;51.374;0.096;2022-09-17T13:50:27;16.20;86.60
63960;DHT22;50136;51.374;0.096;2022-09-17T14:11:44;16.30;83.70
63960;DHT22;50136;51.374;0.096;2022-09-17T14:21:56;16.80;82.90
63960;DHT22;50136;51.374;0.096;2022-09-17T14:32:00;17.10;83.50
63960;DHT22;50136;51.374;0.096;2022-09-17T14:42:04;17.40;84.60
63960;DHT22;50136;51.374;0.096;2022-09-17T14:52:23;17.80;83.70
63960;DHT22;50136;51.374;0.096;2022-09-17T15:02:32;18.10;82.60
63960;DHT22;50136;51.374;0.096;2022-09-17T15:12:37;18.10;81.10
63960;DHT22;50136;51.374;0.096;2022-09-17T15:22:41;18.20;81.20
63960;DHT22;50136;51.374;0.096;2022-09-17T15:32:49;18.00;81.00
63960;DHT22;50136;51.374;0.096;2022-09-17T15:42:58;17.80;81.10
63960;DHT22;50136;51.374;0.096;2022-09-17T15:53:13;18.20;81.00
63960;DHT22;50136;51.374;0.096;2022-09-17T16:13:56;18.10;80.00
63960;DHT22;50136;51.374;0.096;2022-09-17T16:23:58;17.90;81.00
63960;DHT22;50136;51.374;0.096;2022-09-17T16:34:02;17.50;81.40
63960;DHT22;50136;51.374;0.096;2022-09-17T16:44:04;17.50;81.10
63960;DHT22;50136;51.374;0.096;2022-09-17T16:54:07;17.30;81.40
63960;DHT22;50136;51.374;0.096;2022-09-17T17:04:09;17.10;81.80
63960;DHT22;50136;51.374;0.096;2022-09-17T17:14:12;16.80;81.70
63960;DHT22;50136;51.374;0.096;2022-09-17T17:24:15;16.40;83.00
63960;DHT22;50136;51.374;0.096;2022-09-17T17:34:19;16.10;83.70
63960;DHT22;50136;51.374;0.096;2022-09-17T17:44:21;15.80;84.50
63960;DHT22;50136;51.374;0.096;2022-09-17T17:54:41;15.60;85.90
63960;DHT22;50136;51.374;0.096;2022-09-17T18:04:45;15.30;86.10
63960;DHT22;50136;51.374;0.096;2022-09-17T18:26:10;14.90;89.00
63960;DHT22;50136;51.374;0.096;2022-09-17T18:46:37;14.20;90.80
63960;DHT22;50136;51.374;0.096;2022-09-17T18:56:39;13.90;91.40
63960;DHT22;50136;51.374;0.096;2022-09-17T19:06:45;13.60;91.90
63960;DHT22;50136;51.374;0.096;2022-09-17T19:16:48;13.30;92.50
63960;DHT22;50136;51.374;0.096;2022-09-17T19:26:52;13.00;93.00
63960;DHT22;50136;51.374;0.096;2022-09-17T19:36:54;12.60;94.20
63960;DHT22;50136;51.374;0.096;2022-09-17T19:46:57;12.30;95.50
63960;DHT22;50136;51.374;0.096;2022-09-17T19:56:59;12.00;95.90
63960;DHT22;50136;51.374;0.096;2022-09-17T20:07:02;11.70;96.50
63960;DHT22;50136;51.374;0.096;2022-09-17T20:17:04;11.40;97.50
63960;DHT22;50136;51.374;0.096;2022-09-17T20:38:19;11.00;98.90
63960;DHT22;50136;51.374;0.096;2022-09-17T20:48:42;10.70;99.00
63960;DHT22;50136;51.374;0.096;2022-09-17T20:58:52;10.60;99.50
63960;DHT22;50136;51.374;0.096;2022-09-17T21:08:55;10.40;99.90
63960;DHT22;50136;51.374;0.096;2022-09-17T21:18:59;10.10;99.90
63960;DHT22;50136;51.374;0.096;2022-09-17T21:29:02;9.90;99.90
63960;DHT22;50136;51.374;0.096;2022-09-17T21:39:09;9.70;99.90
63960;DHT22;50136;51.374;0.096;2022-09-17T21:49:12;9.60;99.90
63960;DHT22;50136;51.374;0.096;2022-09-17T21:59:15;9.40;99.90
63960;DHT22;50136;51.374;0.096;2022-09-17T22:09:19;9.30;99.90
63960;DHT22;50136;51.374;0.096;2022-09-17T22:19:23;9.10;99.90
63960;DHT22;50136;51.374;0.096;2022-09-17T22:29:27;9.10;99.90
63960;DHT22;50136;51.374;0.096;2022-09-17T22:39:30;9.00;99.90
63960;DHT22;50136;51.374;0.096;2022-09-17T22:49:32;9.00;99.90
63960;DHT22;50136;51.374;0.096;2022-09-17T22:59:35;9.00;99.90
63960;DHT22;50136;51.374;0.096;2022-09-17T23:09:37;9.00;99.90
63960;DHT22;50136;51.374;0.096;2022-09-17T23:19:41;9.10;99.90
63960;DHT22;50136;51.374;0.096;2022-09-17T23:29:42;9.10;99.90
63960;DHT22;50136;51.374;0.096;2022-09-17T23:39:46;9.20;99.90
63960;DHT22;50136;51.374;0.096;2022-09-17T23:49:48;9.20;99.90
63960;DHT22;50136;51.374;0.096;2022-09-17T23:59:51;9.20;99.90
